createdAt,value
2022-11-15T00:02:05.758Z,89.70
2022-11-15T00:06:27.808Z,89.91
2022-11-15T00:10:57.882Z,89.82
2022-11-15T00:15:19.311Z,89.85
2022-11-15T00:19:40.752Z,89.87
2022-11-15T00:24:02.266Z,90.10
2022-11-15T00:28:25.819Z,90.23
2022-11-15T00:32:47.478Z,90.08
2022-11-15T00:37:09.248Z,89.92
2022-11-15T00:41:30.709Z,90.19
2022-11-15T00:45:53.571Z,89.75
2022-11-15T00:50:15.766Z,90.08
2022-11-15T00:54:37.731Z,89.69
2022-11-15T00:58:59.513Z,90.04
2022-11-15T01:03:22.153Z,90.26
2022-11-15T01:07:43.913Z,90.50
2022-11-15T01:12:05.743Z,90.43
2022-11-15T01:16:27.262Z,90.61
2022-11-15T01:20:50.404Z,90.31
2022-11-15T01:25:11.766Z,90.27
2022-11-15T01:29:33.448Z,90.18
2022-11-15T01:33:55.087Z,90.32
2022-11-15T01:38:18.446Z,90.64
2022-11-15T01:42:40.278Z,90.54
2022-11-15T01:47:04.279Z,90.77
2022-11-15T01:51:28.834Z,90.73
2022-11-15T01:55:52.127Z,90.95
2022-11-15T02:00:15.649Z,90.83
2022-11-15T02:04:41.947Z,90.85
2022-11-15T02:09:03.899Z,90.70
2022-11-15T02:13:26.706Z,90.67
2022-11-15T02:18:08.328Z,91.21
2022-11-15T02:22:45.142Z,91.04
2022-11-15T02:27:28.979Z,91.17
2022-11-15T02:31:59.618Z,90.95
2022-11-15T02:36:32.860Z,91.02
2022-11-15T02:40:59.562Z,91.07
2022-11-15T02:45:27.027Z,91.04
2022-11-15T02:49:52.169Z,90.58
2022-11-15T02:54:17.360Z,91.16
2022-11-15T02:58:56.174Z,91.08
2022-11-15T03:03:31.391Z,91.14
2022-11-15T03:08:02.662Z,91.27
2022-11-15T03:12:30.311Z,91.53
2022-11-15T03:16:58.573Z,91.82
2022-11-15T03:21:22.391Z,91.74
2022-11-15T03:25:50.181Z,91.74
2022-11-15T03:30:13.406Z,91.53
2022-11-15T03:34:40.234Z,91.69
2022-11-15T03:39:07.289Z,91.49
2022-11-15T03:43:38.409Z,91.53
2022-11-15T03:48:04.589Z,91.59
2022-11-15T03:52:26.402Z,91.35
2022-11-15T03:56:48.024Z,91.04
2022-11-15T04:01:11.418Z,90.93
2022-11-15T04:05:33.121Z,91.42
2022-11-15T04:10:07.383Z,91.31
2022-11-15T04:14:28.591Z,91.66
2022-11-15T04:19:11.743Z,91.75
2022-11-15T04:24:02.314Z,91.98
2022-11-15T04:28:24.247Z,92.26
2022-11-15T04:32:45.642Z,92.13
2022-11-15T04:37:14.509Z,92.27
2022-11-15T04:41:36.287Z,92.70
2022-11-15T04:45:57.582Z,92.52
2022-11-15T04:50:19.596Z,92.69
2022-11-15T04:54:43.799Z,92.20
2022-11-15T04:59:05.562Z,92.11
2022-11-15T05:03:44.323Z,92.04
2022-11-15T05:08:06.774Z,92.04
2022-11-15T05:12:30.201Z,91.93
2022-11-15T05:16:52.331Z,92.22
2022-11-15T05:21:16.976Z,91.66
2022-11-15T05:25:39.118Z,91.62
2022-11-15T05:30:02.367Z,91.79
2022-11-15T05:34:25.834Z,92.05
2022-11-15T05:38:48.001Z,92.07
2022-11-15T05:43:10.238Z,91.98
2022-11-15T05:47:35.610Z,91.86
2022-11-15T05:51:58.567Z,92.07
2022-11-15T05:56:19.991Z,92.27
2022-11-15T06:00:41.986Z,92.01
2022-11-15T06:05:06.381Z,91.69
2022-11-15T06:09:28.256Z,91.69
2022-11-15T06:13:49.704Z,91.78
2022-11-15T06:18:11.566Z,91.48
2022-11-15T06:22:34.542Z,91.68
2022-11-15T06:26:55.974Z,91.69
2022-11-15T06:31:19.162Z,91.60
2022-11-15T06:35:40.855Z,91.91
2022-11-15T06:40:03.707Z,92.31
2022-11-15T06:44:25.220Z,92.52
2022-11-15T06:48:46.544Z,92.18
2022-11-15T06:53:08.018Z,92.28
2022-11-15T06:57:30.983Z,92.47
2022-11-15T07:01:52.653Z,92.49
2022-11-15T07:06:15.296Z,92.46
2022-11-15T07:10:36.950Z,92.61
2022-11-15T07:14:59.879Z,92.59
2022-11-15T07:19:21.658Z,93.00
2022-11-15T07:23:43.352Z,92.72
2022-11-15T07:28:05.666Z,92.71
2022-11-15T07:32:28.592Z,92.69
2022-11-15T07:36:51.044Z,92.38
2022-11-15T07:41:13.608Z,92.35
2022-11-15T07:45:35.783Z,92.27
2022-11-15T07:49:58.573Z,92.54
2022-11-15T07:54:20.402Z,93.02
2022-11-15T07:58:41.982Z,92.72
2022-11-15T08:03:04.964Z,92.60
2022-11-15T08:07:31.412Z,92.73
2022-11-15T08:11:53.247Z,92.83
2022-11-15T08:16:14.840Z,93.09
2022-11-15T08:20:37.688Z,93.36
2022-11-15T08:25:00.706Z,93.21
2022-11-15T08:29:22.083Z,93.35
2022-11-15T08:33:43.672Z,93.57
2022-11-15T08:38:04.886Z,93.31
2022-11-15T08:42:27.693Z,93.38
2022-11-15T08:46:49.367Z,93.32
2022-11-15T08:51:11.365Z,93.53
2022-11-15T08:55:33.005Z,93.38
2022-11-15T08:59:55.934Z,93.17
2022-11-15T09:04:17.560Z,93.46
2022-11-15T09:08:48.245Z,93.74
2022-11-15T09:13:13.369Z,94.24
2022-11-15T09:17:36.574Z,94.20
2022-11-15T09:21:58.095Z,93.85
2022-11-15T09:26:20.485Z,94.11
2022-11-15T09:30:41.825Z,94.26
2022-11-15T09:35:05.384Z,94.29
2022-11-15T09:39:27.024Z,93.89
2022-11-15T09:43:57.536Z,94.38
2022-11-15T09:48:37.812Z,94.05
2022-11-15T09:53:02.521Z,94.04
2022-11-15T09:57:13.137Z,94.16
2022-11-15T10:01:28.356Z,94.32
2022-11-15T10:05:32.556Z,94.68
2022-11-15T10:09:44.832Z,94.59
2022-11-15T10:13:50.476Z,94.52
2022-11-15T10:18:11.134Z,94.43
2022-11-15T10:22:27.697Z,94.23
2022-11-15T10:26:32.181Z,94.62
2022-11-15T10:30:37.504Z,94.35
2022-11-15T10:34:40.593Z,94.01
2022-11-15T10:38:57.792Z,94.41
2022-11-15T10:43:15.505Z,94.98
2022-11-15T10:47:27.397Z,94.47
2022-11-15T10:51:32.083Z,94.81
2022-11-15T10:55:36.966Z,94.75
2022-11-15T10:59:47.751Z,94.96
2022-11-15T11:04:02.102Z,94.81
2022-11-15T11:08:24.610Z,94.89
2022-11-15T11:12:33.770Z,94.67
2022-11-15T11:16:50.679Z,94.66
2022-11-15T11:21:00.286Z,94.58
2022-11-15T11:25:21.757Z,94.31
2022-11-15T11:29:40.594Z,94.04
2022-11-15T11:33:53.712Z,93.88
2022-11-15T11:38:07.442Z,93.36
2022-11-15T11:42:19.015Z,93.26
2022-11-15T11:46:41.184Z,93.37
2022-11-15T11:50:48.031Z,93.54
2022-11-15T11:55:06.483Z,93.67
2022-11-15T11:59:21.361Z,93.75
2022-11-15T12:03:30.745Z,93.46
2022-11-15T12:07:38.113Z,93.48
2022-11-15T12:11:56.455Z,93.64
2022-11-15T12:16:09.273Z,93.44
2022-11-15T12:20:19.713Z,93.80
2022-11-15T12:24:29.002Z,93.75
2022-11-15T12:28:52.913Z,93.67
2022-11-15T12:33:03.884Z,93.98
2022-11-15T12:37:49.384Z,94.29
2022-11-15T12:42:42.931Z,93.85
2022-11-15T12:47:05.002Z,93.83
2022-11-15T12:51:08.088Z,93.90
2022-11-15T12:55:32.804Z,93.85
2022-11-15T12:59:54.232Z,93.62
2022-11-15T13:04:25.125Z,93.77
2022-11-15T13:08:42.287Z,93.63
2022-11-15T13:12:54.893Z,93.59
2022-11-15T13:17:01.560Z,93.64
2022-11-15T13:21:23.859Z,93.91
2022-11-15T13:26:03.746Z,93.97
2022-11-15T13:30:07.634Z,94.00
2022-11-15T13:34:50.072Z,93.88
2022-11-15T13:38:57.270Z,94.01
2022-11-15T13:43:01.495Z,93.93
2022-11-15T13:47:07.248Z,94.19
2022-11-15T13:51:20.124Z,93.95
2022-11-15T13:55:24.903Z,93.87
2022-11-15T13:59:31.024Z,94.19
2022-11-15T14:03:35.960Z,94.08
2022-11-15T14:07:44.472Z,94.23
2022-11-15T14:11:55.498Z,93.51
2022-11-15T14:16:17.925Z,93.63
2022-11-15T14:20:33.563Z,93.87
2022-11-15T14:24:38.788Z,93.91
2022-11-15T14:28:41.784Z,93.78
2022-11-15T14:32:47.631Z,94.10
2022-11-15T14:36:50.777Z,93.77
2022-11-15T14:40:56.821Z,93.43
2022-11-15T14:45:00.073Z,93.58
2022-11-15T14:49:03.635Z,93.73
2022-11-15T14:53:07.270Z,93.64
2022-11-15T14:57:11.639Z,93.84
2022-11-15T15:01:25.151Z,93.70
2022-11-15T15:05:33.449Z,93.85
2022-11-15T15:09:36.431Z,93.41
2022-11-15T15:13:40.816Z,93.61
2022-11-15T15:17:44.104Z,93.39
2022-11-15T15:21:47.066Z,92.90
2022-11-15T15:25:50.860Z,93.01
2022-11-15T15:29:55.270Z,93.21
2022-11-15T15:33:58.238Z,93.12
2022-11-15T15:38:01.241Z,93.41
2022-11-15T15:42:04.907Z,93.41
2022-11-15T15:46:13.695Z,93.21
2022-11-15T15:50:23.267Z,92.97
2022-11-15T15:54:26.244Z,93.05
2022-11-15T15:58:29.719Z,93.22
2022-11-15T16:02:40.166Z,93.31
2022-11-15T16:06:51.308Z,92.76
2022-11-15T16:10:54.584Z,92.86
2022-11-15T16:14:57.649Z,92.86
2022-11-15T16:19:02.349Z,93.08
2022-11-15T16:23:09.360Z,93.12
2022-11-15T16:27:15.841Z,93.20
2022-11-15T16:31:22.137Z,93.22
2022-11-15T16:35:26.811Z,93.15
2022-11-15T16:39:30.928Z,92.61
2022-11-15T16:43:33.958Z,92.96
2022-11-15T16:47:36.972Z,92.50
2022-11-15T16:51:41.714Z,92.23
2022-11-15T16:55:44.948Z,92.63
2022-11-15T16:59:48.230Z,92.19
2022-11-15T17:03:51.703Z,92.46
2022-11-15T17:07:56.237Z,92.22
2022-11-15T17:11:59.331Z,92.24
2022-11-15T17:16:06.956Z,92.10
2022-11-15T17:20:16.580Z,92.10
2022-11-15T17:24:21.749Z,91.90
2022-11-15T17:28:24.777Z,91.81
2022-11-15T17:32:27.791Z,91.50
2022-11-15T17:36:31.246Z,91.35
2022-11-15T17:40:35.755Z,91.69
2022-11-15T17:44:38.736Z,91.53
2022-11-15T17:48:43.245Z,91.54
2022-11-15T17:52:46.410Z,91.38
2022-11-15T17:56:50.883Z,91.25
2022-11-15T18:00:53.921Z,90.80
2022-11-15T18:04:57.094Z,90.70
2022-11-15T18:09:00.783Z,91.19
2022-11-15T18:13:05.526Z,91.13
2022-11-15T18:17:08.740Z,91.29
2022-11-15T18:21:13.967Z,91.17
2022-11-15T18:25:17.704Z,90.90
2022-11-15T18:29:24.510Z,91.04
2022-11-15T18:33:28.188Z,91.05
2022-11-15T18:37:31.311Z,90.96
2022-11-15T18:41:36.307Z,91.09
2022-11-15T18:45:40.701Z,90.97
2022-11-15T18:49:43.660Z,91.12
2022-11-15T18:53:47.976Z,90.70
2022-11-15T18:57:50.908Z,90.89
2022-11-15T19:01:56.967Z,90.93
2022-11-15T19:06:04.019Z,90.75
2022-11-15T19:10:08.251Z,90.57
2022-11-15T19:14:12.736Z,90.40
2022-11-15T19:18:20.463Z,89.88
2022-11-15T19:22:23.907Z,89.57
2022-11-15T19:26:37.020Z,89.95
2022-11-15T19:30:40.645Z,89.48
2022-11-15T19:34:44.988Z,89.62
2022-11-15T19:38:48.371Z,89.48
2022-11-15T19:42:51.555Z,89.46
2022-11-15T19:46:54.833Z,89.41
2022-11-15T19:51:01.783Z,89.24
2022-11-15T19:55:05.180Z,89.17
2022-11-15T19:59:08.702Z,88.90
2022-11-15T20:03:12.190Z,88.83
2022-11-15T20:07:16.917Z,88.66
2022-11-15T20:11:21.295Z,88.45
2022-11-15T20:15:24.535Z,88.45
2022-11-15T20:19:27.727Z,88.76
2022-11-15T20:23:32.265Z,88.36
2022-11-15T20:27:35.375Z,87.89
2022-11-15T20:31:38.424Z,88.01
2022-11-15T20:35:42.189Z,87.48
2022-11-15T20:39:46.588Z,87.74
2022-11-15T20:43:49.720Z,87.99
2022-11-15T20:47:55.882Z,88.31
2022-11-15T20:51:58.898Z,88.32
2022-11-15T20:56:07.796Z,89.03
2022-11-15T21:00:11.936Z,89.40
2022-11-15T21:04:15.085Z,89.49
2022-11-15T21:08:18.060Z,89.89
2022-11-15T21:12:21.466Z,89.91
2022-11-15T21:16:24.474Z,89.99
2022-11-15T21:20:28.114Z,90.25
2022-11-15T21:24:31.373Z,90.67
2022-11-15T21:28:36.089Z,90.48
2022-11-15T21:32:39.378Z,90.42
2022-11-15T21:36:42.427Z,90.49
2022-11-15T21:40:45.541Z,90.92
2022-11-15T21:44:49.999Z,90.70
2022-11-15T21:48:52.966Z,90.93
2022-11-15T21:52:56.173Z,90.96
2022-11-15T21:56:59.728Z,91.24
2022-11-15T22:01:24.338Z,91.21
2022-11-15T22:05:27.693Z,91.42
2022-11-15T22:09:30.826Z,91.54
2022-11-15T22:13:34.341Z,91.67
2022-11-15T22:17:56.086Z,91.56
2022-11-15T22:21:59.276Z,91.19
2022-11-15T22:26:03.055Z,91.53
2022-11-15T22:30:06.797Z,91.73
2022-11-15T22:34:11.404Z,92.08
2022-11-15T22:38:14.823Z,91.84
2022-11-15T22:42:23.232Z,91.88
2022-11-15T22:46:27.885Z,92.25
2022-11-15T22:50:32.454Z,92.02
2022-11-15T22:54:35.772Z,91.83
2022-11-15T22:58:38.990Z,92.20
2022-11-15T23:02:42.367Z,92.60
2022-11-15T23:06:47.084Z,92.51
2022-11-15T23:11:07.537Z,92.33
2022-11-15T23:15:11.379Z,92.27
2022-11-15T23:19:14.779Z,92.31
2022-11-15T23:23:19.690Z,92.75
2022-11-15T23:27:23.878Z,92.64
2022-11-15T23:31:44.175Z,92.52
2022-11-15T23:35:54.950Z,92.38
2022-11-15T23:39:59.495Z,92.33
2022-11-15T23:44:02.805Z,92.31
2022-11-15T23:48:06.726Z,92.72
2022-11-15T23:52:09.914Z,92.40
2022-11-15T23:56:16.682Z,92.50
